Tanacross, Alaska
Current Conditions -  °F | °C
As of 3:53 AM on Saturday 25 Oct 2014 (Local Time) from PAOR Reporting Station
Light Snow Light Snow  
Wind Chill: 15°   Ceiling: 3500
Heat Index: 21°   Visibility: 5mi
Dew Point: 18°   Wind: 5mph
Humidity: 88%   Direction: 320°NW
Pressure: 29.89"   Gusts: NA
Location:  63.38°N, 143.36°W
Report Text: PAOR 251153Z 32004KT 5SM -SN BKN035 OVC043 M06/M08 A2989 RMK AO2 SLP159 T10611078 11050 21061 50002
Loading
Personal Weather Stations






























Interactive Weather Map
Tropical Storm Tracking
New forecast layout! Learn more

10-Day Weather Forecast

Advertisements
Track Severe Weather on mobile